createdAt,value
2018-09-16T00:00:47.590Z,7.45
2018-09-16T00:01:53.812Z,7.40
2018-09-16T00:02:59.492Z,7.37
2018-09-16T00:04:06.300Z,7.36
2018-09-16T00:05:12.408Z,7.31
2018-09-16T00:06:18.128Z,7.29
2018-09-16T00:07:24.842Z,7.31
2018-09-16T00:08:31.036Z,7.31
2018-09-16T00:09:37.290Z,7.29
2018-09-16T00:10:43.431Z,7.26
2018-09-16T00:11:49.151Z,7.22
2018-09-16T00:12:55.866Z,7.28
2018-09-16T00:14:02.053Z,7.36
2018-09-16T00:15:08.252Z,7.33
2018-09-16T00:16:14.455Z,7.29
2018-09-16T00:17:20.677Z,7.24
2018-09-16T00:18:26.880Z,7.19
2018-09-16T00:19:33.071Z,7.20
2018-09-16T00:20:39.302Z,7.19
2018-09-16T00:21:45.465Z,7.14
2018-09-16T00:22:51.298Z,7.14
2018-09-16T00:23:57.875Z,7.12
2018-09-16T00:25:04.071Z,7.09
2018-09-16T00:26:10.283Z,7.07
2018-09-16T00:27:15.977Z,7.09
2018-09-16T00:28:22.687Z,7.09
2018-09-16T00:29:28.363Z,7.05
2018-09-16T00:30:35.057Z,6.99
2018-09-16T00:31:41.279Z,6.96
2018-09-16T00:32:47.459Z,6.96
2018-09-16T00:33:53.640Z,6.98
2018-09-16T00:35:00.826Z,6.95
2018-09-16T00:36:05.537Z,6.91
2018-09-16T00:37:11.729Z,6.91
2018-09-16T00:38:18.409Z,6.87
2018-09-16T00:39:24.611Z,6.84
2018-09-16T00:40:30.303Z,6.82
2018-09-16T00:41:36.996Z,6.85
2018-09-16T00:42:43.290Z,6.82
2018-09-16T00:43:49.375Z,6.83
2018-09-16T00:44:55.571Z,6.86
2018-09-16T00:46:01.751Z,6.85
2018-09-16T00:47:07.948Z,6.77
2018-09-16T00:48:14.155Z,6.70
2018-09-16T00:49:20.331Z,6.67
2018-09-16T00:50:26.528Z,6.63
2018-09-16T00:51:32.708Z,6.60
2018-09-16T00:52:38.421Z,6.59
2018-09-16T00:53:44.604Z,6.59
2018-09-16T00:54:51.290Z,6.60
2018-09-16T00:55:57.489Z,6.63
2018-09-16T00:57:03.662Z,6.69
2018-09-16T00:58:09.359Z,6.76
2018-09-16T00:59:15.538Z,6.74
2018-09-16T01:00:22.224Z,6.74
2018-09-16T01:01:28.429Z,6.70
2018-09-16T01:02:34.601Z,6.69
2018-09-16T01:03:40.780Z,6.64
2018-09-16T01:04:46.477Z,6.65
2018-09-16T01:05:52.660Z,6.62
2018-09-16T01:06:59.350Z,6.60
2018-09-16T01:08:05.044Z,6.59
2018-09-16T01:09:11.219Z,6.67
2018-09-16T01:10:17.399Z,6.68
2018-09-16T01:11:23.575Z,6.65
2018-09-16T01:12:29.759Z,6.64
2018-09-16T01:13:36.461Z,6.56
2018-09-16T01:14:42.648Z,6.45
2018-09-16T01:15:48.310Z,6.39
2018-09-16T01:16:54.986Z,6.35
2018-09-16T01:18:00.678Z,6.31
2018-09-16T01:19:07.361Z,6.30
2018-09-16T01:20:13.535Z,6.31
2018-09-16T01:21:19.724Z,6.32
2018-09-16T01:22:25.905Z,6.32
2018-09-16T01:23:31.587Z,6.30
2018-09-16T01:24:37.768Z,6.32
2018-09-16T01:25:44.433Z,6.33
2018-09-16T01:26:50.620Z,6.39
2018-09-16T01:27:56.297Z,6.46
2018-09-16T01:29:02.987Z,6.51
2018-09-16T01:30:08.652Z,6.51
2018-09-16T01:31:14.841Z,6.49
2018-09-16T01:32:21.503Z,6.46
2018-09-16T01:33:27.697Z,6.44
2018-09-16T01:34:33.370Z,6.44
2018-09-16T01:35:39.547Z,6.43
2018-09-16T01:36:45.727Z,6.39
2018-09-16T01:37:51.904Z,6.31
2018-09-16T01:38:58.581Z,6.26
2018-09-16T01:40:04.759Z,6.25
2018-09-16T01:41:10.926Z,6.25
2018-09-16T01:42:17.100Z,6.26
2018-09-16T01:43:26.227Z,6.27
2018-09-16T01:44:29.463Z,6.26
2018-09-16T01:45:35.139Z,6.25
2018-09-16T01:46:41.813Z,6.24
2018-09-16T01:47:47.973Z,6.23
2018-09-16T01:48:53.680Z,6.20
2018-09-16T01:50:00.325Z,6.20
2018-09-16T01:51:06.011Z,6.21
2018-09-16T01:52:12.671Z,6.19
2018-09-16T01:53:18.861Z,6.15
2018-09-16T01:54:25.048Z,6.09
2018-09-16T01:55:31.192Z,6.03
2018-09-16T01:56:36.873Z,6.02
2018-09-16T01:57:43.543Z,6.03
2018-09-16T01:58:49.228Z,6.07
2018-09-16T01:59:55.904Z,6.09
2018-09-16T02:01:02.067Z,6.12
2018-09-16T02:02:08.275Z,6.09
2018-09-16T02:03:13.916Z,6.09
2018-09-16T02:04:20.112Z,6.07
2018-09-16T02:05:26.261Z,6.11
2018-09-16T02:06:32.433Z,6.13
2018-09-16T02:07:38.587Z,6.12
2018-09-16T02:08:44.765Z,6.13
2018-09-16T02:09:51.436Z,6.05
2018-09-16T02:10:57.587Z,6.02
2018-09-16T02:12:03.267Z,5.96
2018-09-16T02:13:09.936Z,5.91
2018-09-16T02:14:15.613Z,5.87
2018-09-16T02:15:21.791Z,5.81
2018-09-16T02:16:28.434Z,5.77
2018-09-16T02:17:34.621Z,5.76
2018-09-16T02:18:40.797Z,5.76
2018-09-16T02:19:46.964Z,5.79
2018-09-16T02:20:52.635Z,5.83
2018-09-16T02:21:58.800Z,5.83
2018-09-16T02:23:04.975Z,5.82
2018-09-16T02:24:11.641Z,5.83
2018-09-16T02:25:17.313Z,5.81
2018-09-16T02:26:23.462Z,5.81
2018-09-16T02:27:29.639Z,5.84
2018-09-16T02:28:36.360Z,5.87
2018-09-16T02:29:41.984Z,5.91
2018-09-16T02:30:48.143Z,5.89
2018-09-16T02:31:54.293Z,5.89
2018-09-16T02:33:00.971Z,5.85
2018-09-16T02:34:07.092Z,5.82
2018-09-16T02:35:13.303Z,5.80
2018-09-16T02:36:18.956Z,5.75
2018-09-16T02:37:25.319Z,5.75
2018-09-16T02:38:32.787Z,5.77
2018-09-16T02:39:37.949Z,5.74
2018-09-16T02:40:43.619Z,5.63
2018-09-16T02:41:50.279Z,5.56
2018-09-16T02:42:55.941Z,5.57
2018-09-16T02:44:02.623Z,5.62
2018-09-16T02:45:08.274Z,5.57
2018-09-16T02:46:14.425Z,5.54
2018-09-16T02:47:21.081Z,5.53
2018-09-16T02:48:27.239Z,5.52
2018-09-16T02:49:33.412Z,5.48
2018-09-16T02:50:39.101Z,5.52
2018-09-16T02:51:45.236Z,5.53
2018-09-16T02:52:51.896Z,5.50
2018-09-16T02:53:58.051Z,5.52
2018-09-16T02:55:03.727Z,5.52
2018-09-16T02:56:09.880Z,5.53
2018-09-16T02:57:16.519Z,5.58
2018-09-16T02:58:22.292Z,5.57
2018-09-16T02:59:28.834Z,5.61
2018-09-16T03:00:35.070Z,5.74
2018-09-16T03:01:42.157Z,5.92
2018-09-16T03:02:47.325Z,6.03
2018-09-16T03:03:53.506Z,6.12
2018-09-16T03:04:59.667Z,6.19
2018-09-16T03:06:05.825Z,6.21
2018-09-16T03:07:11.979Z,6.20
2018-09-16T03:08:18.135Z,6.14
2018-09-16T03:09:24.325Z,5.98
2018-09-16T03:10:30.471Z,5.93
2018-09-16T03:11:36.692Z,5.90
2018-09-16T03:12:42.760Z,5.82
2018-09-16T03:13:48.943Z,5.74
2018-09-16T03:14:55.100Z,5.69
2018-09-16T03:16:01.260Z,5.67
2018-09-16T03:17:06.950Z,5.65
2018-09-16T03:18:13.080Z,5.59
2018-09-16T03:19:19.734Z,5.52
2018-09-16T03:20:25.892Z,5.49
2018-09-16T03:21:32.033Z,5.41
2018-09-16T03:22:38.280Z,5.37
2018-09-16T03:23:43.856Z,5.33
2018-09-16T03:24:50.014Z,5.31
2018-09-16T03:25:56.665Z,5.28
2018-09-16T03:27:02.814Z,5.25
2018-09-16T03:28:08.997Z,5.23
2018-09-16T03:29:15.130Z,5.24
2018-09-16T03:30:21.273Z,5.25
2018-09-16T03:31:26.951Z,5.26
2018-09-16T03:32:33.584Z,5.24
2018-09-16T03:33:39.266Z,5.23
2018-09-16T03:34:45.908Z,5.22
2018-09-16T03:35:52.055Z,5.19
2018-09-16T03:36:58.283Z,5.15
2018-09-16T03:38:04.357Z,5.09
2018-09-16T03:39:10.512Z,5.08
2018-09-16T03:40:16.671Z,5.04
2018-09-16T03:41:22.803Z,5.02
2018-09-16T03:42:29.961Z,4.99
2018-09-16T03:43:35.148Z,4.97
2018-09-16T03:44:41.268Z,4.96
2018-09-16T03:45:46.921Z,5.00
2018-09-16T03:46:53.651Z,5.08
2018-09-16T03:47:59.728Z,5.10
2018-09-16T03:49:05.870Z,5.12
2018-09-16T03:50:12.023Z,5.12
2018-09-16T03:51:18.284Z,5.08
2018-09-16T03:52:23.824Z,5.10
2018-09-16T03:53:30.479Z,5.14
2018-09-16T03:54:36.620Z,5.14
2018-09-16T03:55:42.771Z,5.07
2018-09-16T03:56:48.439Z,5.01
2018-09-16T03:57:55.082Z,4.98
2018-09-16T03:59:01.224Z,4.98
2018-09-16T04:00:06.885Z,5.00
2018-09-16T04:01:13.504Z,5.00
2018-09-16T04:02:19.670Z,5.06
2018-09-16T04:03:25.315Z,5.03
2018-09-16T04:04:31.941Z,4.94
2018-09-16T04:05:38.098Z,4.92
2018-09-16T04:06:44.335Z,5.00
2018-09-16T04:07:50.393Z,5.02
2018-09-16T04:08:56.531Z,5.01
2018-09-16T04:10:02.688Z,5.01
2018-09-16T04:11:08.824Z,4.98
2018-09-16T04:12:14.974Z,5.01
2018-09-16T04:13:21.118Z,5.11
2018-09-16T04:14:27.257Z,5.26
2018-09-16T04:15:33.410Z,5.35
2018-09-16T04:16:39.051Z,5.31
2018-09-16T04:17:45.699Z,5.18
2018-09-16T04:18:51.331Z,5.07
2018-09-16T04:19:57.966Z,4.99
2018-09-16T04:21:04.148Z,4.97
2018-09-16T04:22:10.284Z,4.98
2018-09-16T04:23:16.413Z,4.93
2018-09-16T04:24:22.546Z,4.94
2018-09-16T04:25:28.700Z,4.94
2018-09-16T04:26:34.845Z,5.01
2018-09-16T04:27:40.998Z,5.06
2018-09-16T04:28:46.637Z,5.07
2018-09-16T04:29:52.780Z,5.08
2018-09-16T04:30:59.422Z,5.08
2018-09-16T04:32:05.073Z,5.07
2018-09-16T04:33:11.705Z,5.07
2018-09-16T04:34:17.857Z,5.05
2018-09-16T04:35:23.997Z,5.02
2018-09-16T04:36:29.636Z,4.94
2018-09-16T04:37:36.325Z,4.85
2018-09-16T04:38:42.414Z,4.82
2018-09-16T04:39:48.070Z,4.76
2018-09-16T04:40:54.219Z,4.77
2018-09-16T04:42:00.855Z,4.76
2018-09-16T04:43:06.504Z,4.68
2018-09-16T04:44:12.640Z,4.61
2018-09-16T04:45:18.786Z,4.58
2018-09-16T04:46:25.433Z,4.56
2018-09-16T04:47:31.577Z,4.57
2018-09-16T04:48:37.206Z,4.63
2018-09-16T04:49:43.396Z,4.70
2018-09-16T04:50:49.985Z,4.78
2018-09-16T04:51:56.118Z,4.86
2018-09-16T04:53:02.302Z,4.89
2018-09-16T04:54:07.900Z,4.96
2018-09-16T04:55:14.544Z,5.00
2018-09-16T04:56:20.665Z,4.99
2018-09-16T04:57:26.325Z,4.89
2018-09-16T04:58:32.964Z,4.79
2018-09-16T04:59:39.097Z,4.72
2018-09-16T05:00:45.226Z,4.67
2018-09-16T05:01:50.886Z,4.64
2018-09-16T05:02:57.524Z,4.59
2018-09-16T05:04:03.663Z,4.60
2018-09-16T05:05:09.296Z,4.63
2018-09-16T05:06:15.934Z,4.59
2018-09-16T05:07:21.594Z,4.55
2018-09-16T05:08:28.288Z,4.56
2018-09-16T05:09:34.352Z,4.55
2018-09-16T05:10:40.501Z,4.55
2018-09-16T05:11:46.633Z,4.54
2018-09-16T05:12:52.766Z,4.54
2018-09-16T05:13:58.512Z,4.63
2018-09-16T05:15:05.040Z,4.69
2018-09-16T05:16:11.199Z,4.69
2018-09-16T05:17:17.336Z,4.65
2018-09-16T05:18:22.976Z,4.63
2018-09-16T05:19:29.598Z,4.69
2018-09-16T05:20:35.246Z,4.73
2018-09-16T05:21:41.882Z,4.71
2018-09-16T05:22:48.015Z,4.65
2018-09-16T05:23:54.285Z,4.64
2018-09-16T05:24:59.811Z,4.70
2018-09-16T05:26:05.943Z,4.76
2018-09-16T05:27:12.569Z,4.84
2018-09-16T05:28:19.712Z,4.88
2018-09-16T05:29:24.872Z,4.89
2018-09-16T05:30:31.014Z,4.94
2018-09-16T05:31:37.151Z,5.00
2018-09-16T05:32:43.326Z,5.02
2018-09-16T05:33:49.438Z,4.98
2018-09-16T05:34:55.567Z,4.93
2018-09-16T05:36:01.216Z,4.89
2018-09-16T05:37:07.849Z,4.97
2018-09-16T05:38:13.497Z,5.05
2018-09-16T05:39:19.656Z,5.09
2018-09-16T05:40:26.288Z,5.11
2018-09-16T05:41:31.919Z,5.11
2018-09-16T05:42:38.576Z,5.12
2018-09-16T05:43:44.729Z,5.12
2018-09-16T05:44:50.865Z,5.13
2018-09-16T05:45:57.011Z,5.20
2018-09-16T05:47:03.155Z,5.27
2018-09-16T05:48:08.800Z,5.30
2018-09-16T05:49:15.455Z,5.30
2018-09-16T05:50:21.600Z,5.29
2018-09-16T05:51:27.753Z,5.30
2018-09-16T05:52:33.393Z,5.30
2018-09-16T05:53:40.046Z,5.29
2018-09-16T05:54:46.207Z,5.36
2018-09-16T05:55:52.344Z,5.47
2018-09-16T05:56:58.012Z,5.54
2018-09-16T05:58:04.650Z,5.55
2018-09-16T05:59:10.350Z,5.58
2018-09-16T06:00:16.969Z,5.62
2018-09-16T06:01:22.616Z,5.67
2018-09-16T06:02:29.275Z,5.67
2018-09-16T06:03:35.429Z,5.70
2018-09-16T06:04:41.948Z,5.71
2018-09-16T06:05:47.741Z,5.74
2018-09-16T06:06:53.886Z,5.70
2018-09-16T06:07:59.566Z,5.73
2018-09-16T06:09:05.721Z,5.75
2018-09-16T06:10:11.885Z,5.76
2018-09-16T06:11:18.539Z,5.81
2018-09-16T06:12:24.715Z,5.83
2018-09-16T06:13:30.870Z,5.87
2018-09-16T06:14:37.032Z,5.91
2018-09-16T06:15:42.710Z,5.96
2018-09-16T06:16:48.859Z,6.02
2018-09-16T06:17:55.520Z,6.09
2018-09-16T06:19:01.187Z,6.18
2018-09-16T06:20:07.871Z,6.28
2018-09-16T06:21:14.028Z,6.36
2018-09-16T06:22:20.290Z,6.46
2018-09-16T06:23:25.864Z,6.54
2018-09-16T06:24:32.514Z,6.63
2018-09-16T06:25:38.688Z,6.72
2018-09-16T06:26:44.371Z,6.81
2018-09-16T06:27:51.038Z,6.91
2018-09-16T06:28:56.708Z,6.97
2018-09-16T06:30:03.397Z,7.04
2018-09-16T06:31:09.563Z,7.11
2018-09-16T06:32:15.237Z,7.15
2018-09-16T06:33:21.910Z,7.12
2018-09-16T06:34:28.093Z,7.06
2018-09-16T06:35:34.280Z,7.05
2018-09-16T06:36:39.951Z,7.04
2018-09-16T06:37:46.637Z,7.03
2018-09-16T06:38:52.808Z,7.12
2018-09-16T06:39:59.032Z,7.17
2018-09-16T06:41:04.690Z,7.32
2018-09-16T06:42:11.363Z,7.49
2018-09-16T06:43:17.566Z,7.61
2018-09-16T06:44:23.239Z,7.55
2018-09-16T06:45:29.429Z,7.57
2018-09-16T06:46:35.623Z,7.75
2018-09-16T06:47:41.807Z,7.70
2018-09-16T06:48:48.496Z,7.79
2018-09-16T06:49:54.693Z,7.88
2018-09-16T06:51:00.972Z,7.87
2018-09-16T06:52:07.089Z,7.95
2018-09-16T06:53:13.279Z,7.95
2018-09-16T06:54:19.488Z,8.08
2018-09-16T06:55:25.684Z,8.26
2018-09-16T06:56:31.916Z,8.31
2018-09-16T06:57:38.093Z,8.42
2018-09-16T06:58:44.302Z,8.57
2018-09-16T06:59:50.512Z,8.72
2018-09-16T07:00:57.782Z,8.90
2018-09-16T07:02:02.933Z,9.06
2018-09-16T07:03:09.136Z,9.20
2018-09-16T07:04:15.358Z,9.30
2018-09-16T07:05:21.567Z,9.42
2018-09-16T07:06:27.796Z,9.57
2018-09-16T07:07:34.024Z,9.69
2018-09-16T07:08:39.726Z,9.75
2018-09-16T07:09:45.953Z,9.85
2018-09-16T07:10:52.676Z,9.95
2018-09-16T07:11:59.404Z,10.06
2018-09-16T07:13:05.107Z,10.17
2018-09-16T07:14:11.360Z,10.22
2018-09-16T07:15:17.589Z,10.30
2018-09-16T07:16:23.318Z,10.40
2018-09-16T07:17:30.050Z,10.53
2018-09-16T07:18:36.334Z,10.63
2018-09-16T07:19:42.527Z,10.75
2018-09-16T07:20:48.767Z,10.89
2018-09-16T07:21:54.520Z,10.99
2018-09-16T07:23:00.760Z,11.02
2018-09-16T07:24:07.493Z,11.07
2018-09-16T07:25:14.741Z,11.14
2018-09-16T07:26:19.992Z,11.26
2018-09-16T07:27:26.336Z,11.32
2018-09-16T07:28:32.016Z,11.42
2018-09-16T07:29:38.769Z,11.49
2018-09-16T07:30:45.025Z,11.49
2018-09-16T07:31:51.285Z,11.45
2018-09-16T07:32:57.054Z,11.47
2018-09-16T07:34:03.831Z,11.58
2018-09-16T07:35:10.053Z,11.76
2018-09-16T07:36:16.338Z,11.85
2018-09-16T07:37:22.610Z,11.88
2018-09-16T07:38:28.856Z,11.89
2018-09-16T07:39:35.144Z,12.01
2018-09-16T07:40:41.420Z,12.04
2018-09-16T07:41:47.702Z,12.01
2018-09-16T07:42:53.971Z,12.02
2018-09-16T07:44:00.281Z,12.11
2018-09-16T07:45:06.531Z,12.15
2018-09-16T07:46:12.299Z,12.25
2018-09-16T07:47:19.156Z,12.32
2018-09-16T07:48:24.866Z,12.38
2018-09-16T07:49:31.655Z,12.35
2018-09-16T07:50:37.443Z,12.36
2018-09-16T07:51:44.367Z,12.38
2018-09-16T07:52:50.085Z,12.40
2018-09-16T07:53:56.317Z,12.50
2018-09-16T07:55:03.114Z,12.56
2018-09-16T07:56:08.917Z,12.65
2018-09-16T07:57:15.701Z,12.69
2018-09-16T07:58:22.024Z,12.80
2018-09-16T07:59:28.318Z,12.92
2018-09-16T08:00:34.647Z,13.00
2018-09-16T08:01:40.945Z,13.06
2018-09-16T08:02:46.758Z,13.02
2018-09-16T08:03:53.570Z,13.04
2018-09-16T08:04:59.889Z,13.08
2018-09-16T08:06:05.738Z,13.17
2018-09-16T08:07:12.531Z,13.28
2018-09-16T08:08:18.865Z,13.41
2018-09-16T08:09:25.196Z,13.50
2018-09-16T08:10:31.032Z,13.43
2018-09-16T08:11:37.362Z,13.35
2018-09-16T08:12:44.276Z,13.36
2018-09-16T08:13:50.617Z,13.44
2018-09-16T08:14:56.891Z,13.44
2018-09-16T08:16:02.747Z,13.49
2018-09-16T08:17:09.100Z,13.54
2018-09-16T08:18:15.466Z,13.61
2018-09-16T08:19:22.306Z,13.71
2018-09-16T08:20:28.658Z,13.70
2018-09-16T08:21:34.524Z,13.63
2018-09-16T08:22:40.900Z,13.58
2018-09-16T08:23:47.269Z,13.61
2018-09-16T08:24:54.133Z,13.60
2018-09-16T08:26:00.012Z,13.61
2018-09-16T08:27:06.878Z,13.60
2018-09-16T08:28:12.817Z,13.59
2018-09-16T08:29:19.291Z,13.61
2018-09-16T08:30:25.995Z,13.62
2018-09-16T08:31:32.381Z,13.60
2018-09-16T08:32:38.273Z,13.58
2018-09-16T08:33:44.656Z,13.56
2018-09-16T08:34:51.577Z,13.60
2018-09-16T08:35:57.916Z,13.71
2018-09-16T08:37:04.302Z,13.86
2018-09-16T08:38:10.700Z,13.92
2018-09-16T08:39:16.619Z,13.97
2018-09-16T08:40:23.495Z,14.01
2018-09-16T08:41:29.880Z,14.06
2018-09-16T08:42:35.781Z,14.10
2018-09-16T08:43:42.693Z,14.24
2018-09-16T08:44:48.599Z,14.47
2018-09-16T08:45:55.489Z,14.80
2018-09-16T08:47:01.390Z,15.05
2018-09-16T08:48:08.296Z,15.22
2018-09-16T08:49:14.307Z,15.16
2018-09-16T08:50:20.630Z,15.04
2018-09-16T08:51:27.033Z,14.91
2018-09-16T08:52:33.944Z,14.90
2018-09-16T08:53:39.864Z,14.90
2018-09-16T08:54:46.769Z,14.92
2018-09-16T08:55:53.187Z,15.02
2018-09-16T08:56:59.132Z,15.09
2018-09-16T08:58:06.393Z,15.16
2018-09-16T08:59:11.967Z,15.30
2018-09-16T09:00:18.391Z,15.33
2018-09-16T09:01:25.320Z,15.35
2018-09-16T09:02:31.754Z,15.33
2018-09-16T09:03:38.280Z,15.33
2018-09-16T09:04:44.148Z,15.28
2018-09-16T09:05:51.080Z,15.25
2018-09-16T09:06:57.050Z,15.25
2018-09-16T09:08:03.481Z,15.27
2018-09-16T09:09:09.932Z,15.27
2018-09-16T09:10:16.378Z,15.26
2018-09-16T09:11:22.828Z,15.30
2018-09-16T09:12:29.786Z,15.37
2018-09-16T09:13:35.741Z,15.52
2018-09-16T09:14:42.198Z,15.60
2018-09-16T09:15:48.675Z,15.68
2018-09-16T09:16:55.619Z,15.71
2018-09-16T09:18:02.079Z,15.72
2018-09-16T09:19:08.028Z,15.78
2018-09-16T09:20:14.514Z,15.86
2018-09-16T09:21:21.463Z,15.96
2018-09-16T09:22:27.933Z,16.08
2018-09-16T09:23:34.432Z,16.18
2018-09-16T09:24:40.393Z,16.24
2018-09-16T09:25:47.348Z,16.27
2018-09-16T09:26:53.820Z,16.37
2018-09-16T09:27:59.836Z,16.45
2018-09-16T09:29:06.370Z,16.57
2018-09-16T09:30:13.269Z,16.66
2018-09-16T09:31:19.740Z,16.77
2018-09-16T09:32:26.302Z,16.85
2018-09-16T09:33:33.213Z,16.96
2018-09-16T09:34:39.204Z,17.09
2018-09-16T09:35:45.232Z,17.17
2018-09-16T09:36:51.696Z,17.13
2018-09-16T09:37:58.279Z,17.07
2018-09-16T09:39:05.177Z,17.02
2018-09-16T09:40:11.178Z,17.06
2018-09-16T09:41:18.545Z,17.09
2018-09-16T09:42:24.294Z,17.17
2018-09-16T09:43:30.713Z,17.30
2018-09-16T09:44:37.187Z,17.38
2018-09-16T09:45:44.200Z,17.47
2018-09-16T09:46:50.207Z,17.53
2018-09-16T09:47:57.214Z,17.58
2018-09-16T09:49:03.242Z,17.68
2018-09-16T09:50:09.766Z,17.71
2018-09-16T09:51:16.283Z,17.84
2018-09-16T09:52:22.801Z,18.01
2018-09-16T09:53:29.863Z,18.17
2018-09-16T09:54:36.343Z,18.29
2018-09-16T09:55:42.881Z,18.33
2018-09-16T09:56:48.913Z,18.34
2018-09-16T09:57:55.442Z,18.39
2018-09-16T09:59:02.563Z,18.40
2018-09-16T10:00:08.519Z,18.44
2018-09-16T10:01:15.045Z,18.48
2018-09-16T10:02:22.082Z,18.48
2018-09-16T10:03:28.641Z,18.49
2018-09-16T10:04:35.175Z,18.52
2018-09-16T10:05:41.236Z,18.53
2018-09-16T10:06:47.786Z,18.71
2018-09-16T10:07:54.825Z,18.82
2018-09-16T10:09:00.892Z,18.88
2018-09-16T10:10:07.956Z,18.93
2018-09-16T10:11:14.012Z,18.93
2018-09-16T10:12:20.572Z,18.90
2018-09-16T10:13:27.148Z,18.91
2018-09-16T10:14:34.394Z,19.00
2018-09-16T10:15:40.264Z,19.10
2018-09-16T10:16:47.323Z,19.22
2018-09-16T10:17:53.883Z,19.31
2018-09-16T10:18:59.962Z,19.25
2018-09-16T10:20:07.031Z,19.23
2018-09-16T10:21:13.594Z,19.26
2018-09-16T10:22:19.679Z,19.26
2018-09-16T10:23:26.239Z,19.26
2018-09-16T10:24:32.818Z,19.24
2018-09-16T10:25:39.737Z,19.25
2018-09-16T10:26:45.978Z,19.26
2018-09-16T10:27:52.547Z,19.32
2018-09-16T10:28:59.140Z,19.37
2018-09-16T10:30:05.727Z,19.48
2018-09-16T10:31:12.306Z,19.57
2018-09-16T10:32:18.889Z,19.61
2018-09-16T10:33:26.479Z,19.66
2018-09-16T10:34:32.053Z,19.71
2018-09-16T10:35:38.650Z,19.83
2018-09-16T10:36:45.244Z,19.92
2018-09-16T10:37:51.820Z,19.86
2018-09-16T10:38:58.498Z,19.78
2018-09-16T10:40:05.017Z,19.85
2018-09-16T10:41:11.601Z,19.96
2018-09-16T10:42:18.696Z,20.06
2018-09-16T10:43:24.805Z,20.11
2018-09-16T10:44:31.405Z,20.12
2018-09-16T10:45:37.991Z,20.16
2018-09-16T10:46:44.619Z,20.18
2018-09-16T10:47:51.690Z,20.29
2018-09-16T10:48:57.811Z,20.29
2018-09-16T10:50:04.424Z,20.32
2018-09-16T10:51:11.032Z,20.33
2018-09-16T10:52:18.150Z,20.41
2018-09-16T10:53:24.749Z,20.45
2018-09-16T10:54:31.350Z,20.53
2018-09-16T10:55:37.972Z,20.61
2018-09-16T10:56:44.102Z,20.67
2018-09-16T10:57:50.712Z,20.60
2018-09-16T10:58:57.811Z,20.56
2018-09-16T11:00:03.940Z,20.67
2018-09-16T11:01:10.564Z,20.75
2018-09-16T11:02:17.302Z,20.88
2018-09-16T11:03:23.818Z,20.93
2018-09-16T11:04:30.441Z,20.88
2018-09-16T11:05:38.069Z,20.79
2018-09-16T11:06:43.709Z,20.86
2018-09-16T11:07:50.387Z,20.88
2018-09-16T11:08:56.951Z,20.80
2018-09-16T11:10:03.588Z,20.75
2018-09-16T11:11:10.216Z,20.87
2018-09-16T11:12:16.865Z,21.00
2018-09-16T11:13:23.495Z,21.06
2018-09-16T11:14:30.622Z,21.05
2018-09-16T11:15:36.769Z,21.06
2018-09-16T11:16:43.412Z,21.18
2018-09-16T11:17:50.061Z,21.36
2018-09-16T11:18:56.693Z,21.45
2018-09-16T11:20:03.352Z,21.56
2018-09-16T11:21:10.027Z,21.62
2018-09-16T11:22:17.031Z,21.58
2018-09-16T11:23:23.538Z,21.57
2018-09-16T11:24:30.261Z,21.62
2018-09-16T11:25:37.106Z,21.63
2018-09-16T11:26:43.993Z,21.69
2018-09-16T11:27:50.924Z,21.76
2018-09-16T11:28:58.348Z,21.89
2018-09-16T11:30:04.914Z,21.83
2018-09-16T11:31:11.852Z,21.86
2018-09-16T11:32:18.903Z,21.82
2018-09-16T11:33:25.958Z,21.77
2018-09-16T11:34:33.048Z,21.66
2018-09-16T11:35:40.256Z,21.59
2018-09-16T11:36:47.299Z,21.63
2018-09-16T11:37:54.481Z,21.65
2018-09-16T11:39:01.634Z,21.75
2018-09-16T11:40:08.824Z,21.90
2018-09-16T11:41:16.042Z,21.95
2018-09-16T11:42:23.285Z,21.98
2018-09-16T11:43:30.652Z,21.94
2018-09-16T11:44:37.793Z,21.98
2018-09-16T11:45:45.061Z,21.92
2018-09-16T11:46:52.835Z,21.91
2018-09-16T11:48:00.131Z,21.94
2018-09-16T11:49:07.422Z,22.04
2018-09-16T11:50:14.728Z,22.13
2018-09-16T11:51:22.064Z,22.18
2018-09-16T11:52:28.905Z,22.29
2018-09-16T11:53:36.768Z,22.35
2018-09-16T11:54:43.596Z,22.36
2018-09-16T11:55:50.956Z,22.38
2018-09-16T11:56:58.828Z,22.32
2018-09-16T11:58:05.717Z,22.27
2018-09-16T11:59:13.091Z,22.17
2018-09-16T12:00:20.505Z,22.13
2018-09-16T12:01:28.358Z,22.16
2018-09-16T12:02:35.772Z,22.18
2018-09-16T12:03:42.703Z,22.28
2018-09-16T12:04:50.122Z,22.48
2018-09-16T12:05:57.535Z,22.72
2018-09-16T12:07:04.980Z,22.95
2018-09-16T12:08:12.427Z,23.04
2018-09-16T12:09:19.860Z,23.03
2018-09-16T12:10:27.816Z,23.08
2018-09-16T12:11:34.811Z,23.09
2018-09-16T12:12:42.242Z,23.12
2018-09-16T12:13:49.723Z,23.09
2018-09-16T12:14:57.298Z,23.04
2018-09-16T12:16:05.348Z,23.05
2018-09-16T12:17:12.204Z,23.10
2018-09-16T12:18:19.707Z,23.18
2018-09-16T12:19:27.841Z,23.13
2018-09-16T12:20:34.732Z,23.11
2018-09-16T12:21:42.271Z,23.24
2018-09-16T12:22:49.801Z,23.38
2018-09-16T12:23:57.364Z,23.50
2018-09-16T12:25:05.388Z,23.64
2018-09-16T12:26:12.459Z,23.64
2018-09-16T12:27:20.017Z,23.72
2018-09-16T12:28:27.595Z,23.72
2018-09-16T12:29:35.144Z,23.77
2018-09-16T12:30:42.732Z,23.80
2018-09-16T12:31:50.277Z,23.79
2018-09-16T12:32:57.845Z,23.82
2018-09-16T12:34:05.925Z,23.78
2018-09-16T12:35:12.999Z,23.79
2018-09-16T12:36:20.556Z,23.77
2018-09-16T12:37:28.147Z,23.80
2018-09-16T12:38:36.219Z,23.78
2018-09-16T12:39:43.297Z,23.84
2018-09-16T12:40:50.866Z,23.95
2018-09-16T12:41:58.452Z,24.03
2018-09-16T12:43:06.036Z,24.08
2018-09-16T12:44:13.606Z,24.16
2018-09-16T12:45:21.706Z,24.16
2018-09-16T12:46:29.278Z,24.17
2018-09-16T12:47:36.850Z,24.14
2018-09-16T12:48:44.456Z,24.13
2018-09-16T12:49:52.026Z,24.18
2018-09-16T12:50:59.129Z,24.30
2018-09-16T12:52:07.282Z,24.50
2018-09-16T12:53:14.326Z,24.62
2018-09-16T12:54:21.921Z,24.63
2018-09-16T12:55:29.488Z,24.65
2018-09-16T12:56:37.551Z,24.60
2018-09-16T12:57:44.604Z,24.61
2018-09-16T12:58:52.672Z,24.69
2018-09-16T12:59:59.732Z,24.64
2018-09-16T13:01:07.245Z,24.55
2018-09-16T13:02:14.777Z,24.49
2018-09-16T13:03:22.317Z,24.46
2018-09-16T13:04:29.940Z,24.58
2018-09-16T13:05:37.361Z,24.29
2018-09-16T13:06:44.897Z,24.05
2018-09-16T13:07:52.411Z,24.22
2018-09-16T13:08:59.972Z,24.41
2018-09-16T13:10:07.495Z,24.67
2018-09-16T13:11:15.522Z,24.59
2018-09-16T13:12:23.063Z,24.45
2018-09-16T13:13:30.182Z,24.14
2018-09-16T13:14:37.679Z,24.05
2018-09-16T13:15:45.421Z,24.22
2018-09-16T13:16:53.289Z,24.33
2018-09-16T13:18:00.372Z,24.40
2018-09-16T13:19:08.468Z,24.47
2018-09-16T13:20:15.547Z,24.50
2018-09-16T13:21:23.650Z,24.53
2018-09-16T13:22:31.276Z,24.53
2018-09-16T13:23:38.389Z,24.52
2018-09-16T13:24:46.016Z,24.40
2018-09-16T13:25:54.124Z,24.41
2018-09-16T13:27:01.295Z,24.57
2018-09-16T13:28:08.898Z,24.83
2018-09-16T13:29:17.040Z,25.04
2018-09-16T13:30:24.700Z,25.24
2018-09-16T13:31:31.832Z,25.40
2018-09-16T13:32:39.463Z,25.53
2018-09-16T13:33:47.085Z,25.64
2018-09-16T13:34:55.721Z,25.69
2018-09-16T13:36:02.318Z,25.50
2018-09-16T13:37:10.404Z,25.35
2018-09-16T13:38:17.523Z,25.06
2018-09-16T13:39:25.109Z,24.80
2018-09-16T13:40:32.696Z,24.54
2018-09-16T13:41:40.273Z,24.24
2018-09-16T13:42:48.305Z,24.00
2018-09-16T13:43:55.422Z,24.10
2018-09-16T13:45:02.979Z,24.31
2018-09-16T13:46:10.524Z,24.55
2018-09-16T13:47:18.079Z,24.72
2018-09-16T13:48:25.645Z,24.88
2018-09-16T13:49:34.144Z,25.22
2018-09-16T13:50:40.765Z,25.28
2018-09-16T13:51:48.316Z,25.36
2018-09-16T13:52:56.373Z,25.44
2018-09-16T13:54:03.486Z,25.47
2018-09-16T13:55:11.039Z,25.55
2018-09-16T13:56:19.097Z,25.65
2018-09-16T13:57:26.638Z,25.80
2018-09-16T13:59:41.262Z,25.85
2018-09-16T14:00:49.315Z,25.58
2018-09-16T14:01:56.426Z,25.59
2018-09-16T14:03:03.949Z,25.60
2018-09-16T14:04:11.528Z,25.63
2018-09-16T14:05:19.099Z,25.64
2018-09-16T14:06:26.664Z,25.71
2018-09-16T14:07:34.242Z,25.76
2018-09-16T14:08:41.813Z,25.73
2018-09-16T14:09:49.385Z,25.76
2018-09-16T14:10:57.474Z,25.72
2018-09-16T14:12:04.536Z,25.77
2018-09-16T14:13:12.118Z,25.81
2018-09-16T14:14:19.699Z,25.86
2018-09-16T14:15:27.655Z,26.05
2018-09-16T14:16:34.848Z,25.98
2018-09-16T14:17:42.409Z,25.98
2018-09-16T14:18:49.982Z,26.04
2018-09-16T14:19:57.557Z,26.09
2018-09-16T14:21:05.121Z,26.14
2018-09-16T14:22:13.353Z,26.12
2018-09-16T14:23:20.759Z,26.12
2018-09-16T14:24:27.847Z,26.16
2018-09-16T14:25:35.434Z,26.24
2018-09-16T14:26:43.035Z,26.40
2018-09-16T14:27:50.631Z,26.47
2018-09-16T14:28:58.196Z,26.49
2018-09-16T14:30:05.788Z,26.48
2018-09-16T14:31:13.386Z,26.51
2018-09-16T14:32:20.972Z,26.53